sensor_id;sensor_type;location;lat;lon;timestamp;temperature;humidity
827;DHT22;395;48.132;11.608;2023-04-12T00:00:00;9.40;1.00
827;DHT22;395;48.132;11.608;2023-04-12T00:02:26;9.40;1.00
827;DHT22;395;48.132;11.608;2023-04-12T00:04:52;9.30;1.00
827;DHT22;395;48.132;11.608;2023-04-12T00:07:23;9.40;1.00
827;DHT22;395;48.132;11.608;2023-04-12T00:09:49;9.40;1.00
827;DHT22;395;48.132;11.608;2023-04-12T00:12:16;9.40;1.00
827;DHT22;395;48.132;11.608;2023-04-12T00:14:44;9.40;1.00
827;DHT22;395;48.132;11.608;2023-04-12T00:17:10;9.30;1.00
827;DHT22;395;48.132;11.608;2023-04-12T00:19:36;9.30;1.00
827;DHT22;395;48.132;11.608;2023-04-12T00:22:06;9.30;1.00
827;DHT22;395;48.132;11.608;2023-04-12T00:24:32;9.30;1.00
827;DHT22;395;48.132;11.608;2023-04-12T00:26:59;9.30;1.00
827;DHT22;395;48.132;11.608;2023-04-12T00:29:26;9.30;1.00
827;DHT22;395;48.132;11.608;2023-04-12T00:31:52;9.30;1.00
827;DHT22;395;48.132;11.608;2023-04-12T00:34:18;9.30;1.00
827;DHT22;395;48.132;11.608;2023-04-12T00:36:43;9.30;1.00
827;DHT22;395;48.132;11.608;2023-04-12T00:39:09;9.30;1.00
827;DHT22;395;48.132;11.608;2023-04-12T00:41:38;9.30;1.00
827;DHT22;395;48.132;11.608;2023-04-12T00:44:03;9.30;1.00
827;DHT22;395;48.132;11.608;2023-04-12T00:46:31;9.30;1.00
827;DHT22;395;48.132;11.608;2023-04-12T00:48:57;9.30;1.00
827;DHT22;395;48.132;11.608;2023-04-12T00:51:23;9.30;1.00
827;DHT22;395;48.132;11.608;2023-04-12T00:53:54;9.40;1.00
827;DHT22;395;48.132;11.608;2023-04-12T00:56:24;9.30;1.00
827;DHT22;395;48.132;11.608;2023-04-12T00:58:52;9.30;1.00
827;DHT22;395;48.132;11.608;2023-04-12T01:01:18;9.30;1.00
827;DHT22;395;48.132;11.608;2023-04-12T01:03:44;9.30;1.00
827;DHT22;395;48.132;11.608;2023-04-12T01:14:38;9.40;1.00
827;DHT22;395;48.132;11.608;2023-04-12T01:17:04;9.40;1.00
827;DHT22;395;48.132;11.608;2023-04-12T01:27:56;9.40;1.00
827;DHT22;395;48.132;11.608;2023-04-12T01:30:26;9.40;1.00
827;DHT22;395;48.132;11.608;2023-04-12T01:32:54;9.40;1.00
827;DHT22;395;48.132;11.608;2023-04-12T01:35:23;9.40;1.00
827;DHT22;395;48.132;11.608;2023-04-12T01:37:51;9.40;1.00
827;DHT22;395;48.132;11.608;2023-04-12T01:40:17;9.40;1.00
827;DHT22;395;48.132;11.608;2023-04-12T01:42:43;9.40;1.00
827;DHT22;395;48.132;11.608;2023-04-12T01:45:09;9.50;1.00
827;DHT22;395;48.132;11.608;2023-04-12T01:47:35;9.50;1.00
827;DHT22;395;48.132;11.608;2023-04-12T01:50:21;9.50;1.00
827;DHT22;395;48.132;11.608;2023-04-12T01:53:04;9.50;1.00
827;DHT22;395;48.132;11.608;2023-04-12T01:55:31;9.60;1.00
827;DHT22;395;48.132;11.608;2023-04-12T01:57:58;9.50;1.00
827;DHT22;395;48.132;11.608;2023-04-12T02:00:27;9.60;1.00
827;DHT22;395;48.132;11.608;2023-04-12T02:02:54;9.60;1.00
827;DHT22;395;48.132;11.608;2023-04-12T02:05:20;9.60;1.00
827;DHT22;395;48.132;11.608;2023-04-12T02:07:46;9.60;1.00
827;DHT22;395;48.132;11.608;2023-04-12T02:10:13;9.60;1.00
827;DHT22;395;48.132;11.608;2023-04-12T02:12:40;9.70;1.00
827;DHT22;395;48.132;11.608;2023-04-12T02:15:06;9.60;1.00
827;DHT22;395;48.132;11.608;2023-04-12T02:17:33;9.60;1.00
827;DHT22;395;48.132;11.608;2023-04-12T02:20:00;9.60;1.00
827;DHT22;395;48.132;11.608;2023-04-12T02:22:26;9.60;1.00
827;DHT22;395;48.132;11.608;2023-04-12T02:24:52;9.60;1.00
827;DHT22;395;48.132;11.608;2023-04-12T02:27:17;9.70;1.00
827;DHT22;395;48.132;11.608;2023-04-12T02:29:44;9.60;1.00
827;DHT22;395;48.132;11.608;2023-04-12T02:32:10;9.60;1.00
827;DHT22;395;48.132;11.608;2023-04-12T02:34:35;9.70;1.00
827;DHT22;395;48.132;11.608;2023-04-12T02:37:03;9.70;1.00
827;DHT22;395;48.132;11.608;2023-04-12T02:39:29;9.70;1.00
827;DHT22;395;48.132;11.608;2023-04-12T02:41:56;9.70;1.00
827;DHT22;395;48.132;11.608;2023-04-12T02:44:22;9.70;1.00
827;DHT22;395;48.132;11.608;2023-04-12T02:46:48;9.70;1.00
827;DHT22;395;48.132;11.608;2023-04-12T02:49:13;9.60;1.00
827;DHT22;395;48.132;11.608;2023-04-12T02:51:39;9.60;1.00
827;DHT22;395;48.132;11.608;2023-04-12T02:54:05;9.70;1.00
827;DHT22;395;48.132;11.608;2023-04-12T02:56:33;9.60;1.00
827;DHT22;395;48.132;11.608;2023-04-12T02:58:59;9.70;1.00
827;DHT22;395;48.132;11.608;2023-04-12T03:01:25;9.60;1.00
827;DHT22;395;48.132;11.608;2023-04-12T03:03:50;9.50;1.00
827;DHT22;395;48.132;11.608;2023-04-12T03:06:16;9.60;1.00
827;DHT22;395;48.132;11.608;2023-04-12T03:08:42;9.60;1.00
827;DHT22;395;48.132;11.608;2023-04-12T03:11:07;9.50;1.00
827;DHT22;395;48.132;11.608;2023-04-12T03:13:33;9.60;1.00
827;DHT22;395;48.132;11.608;2023-04-12T03:15:59;9.50;1.00
827;DHT22;395;48.132;11.608;2023-04-12T03:18:25;9.60;1.00
827;DHT22;395;48.132;11.608;2023-04-12T03:20:50;9.60;1.00
827;DHT22;395;48.132;11.608;2023-04-12T03:23:19;9.50;1.00
827;DHT22;395;48.132;11.608;2023-04-12T03:25:45;9.60;1.00
827;DHT22;395;48.132;11.608;2023-04-12T03:28:10;9.60;1.00
827;DHT22;395;48.132;11.608;2023-04-12T03:30:36;9.60;1.00
827;DHT22;395;48.132;11.608;2023-04-12T03:33:02;9.50;1.00
827;DHT22;395;48.132;11.608;2023-04-12T03:35:27;9.50;1.00
827;DHT22;395;48.132;11.608;2023-04-12T03:37:53;9.50;1.00
827;DHT22;395;48.132;11.608;2023-04-12T03:40:18;9.40;1.00
827;DHT22;395;48.132;11.608;2023-04-12T03:42:44;9.40;1.00
827;DHT22;395;48.132;11.608;2023-04-12T03:45:10;9.40;1.30
827;DHT22;395;48.132;11.608;2023-04-12T03:47:36;9.40;1.90
827;DHT22;395;48.132;11.608;2023-04-12T03:50:03;9.30;1.60
827;DHT22;395;48.132;11.608;2023-04-12T03:52:33;9.30;1.50
827;DHT22;395;48.132;11.608;2023-04-12T03:54:59;9.30;2.00
827;DHT22;395;48.132;11.608;2023-04-12T03:57:25;9.30;2.10
827;DHT22;395;48.132;11.608;2023-04-12T03:59:51;9.30;2.20
827;DHT22;395;48.132;11.608;2023-04-12T04:02:17;9.30;2.40
827;DHT22;395;48.132;11.608;2023-04-12T04:04:42;9.30;2.40
827;DHT22;395;48.132;11.608;2023-04-12T04:07:09;9.30;2.90
827;DHT22;395;48.132;11.608;2023-04-12T04:09:35;9.30;2.90
827;DHT22;395;48.132;11.608;2023-04-12T04:12:01;9.30;2.80
827;DHT22;395;48.132;11.608;2023-04-12T04:14:26;9.30;2.80
827;DHT22;395;48.132;11.608;2023-04-12T04:16:52;9.30;2.90
827;DHT22;395;48.132;11.608;2023-04-12T04:19:19;9.30;2.80
827;DHT22;395;48.132;11.608;2023-04-12T04:21:45;9.30;3.00
827;DHT22;395;48.132;11.608;2023-04-12T04:24:11;9.30;3.00
827;DHT22;395;48.132;11.608;2023-04-12T04:26:38;9.30;3.00
827;DHT22;395;48.132;11.608;2023-04-12T04:29:04;9.30;3.20
827;DHT22;395;48.132;11.608;2023-04-12T04:31:31;9.30;3.30
827;DHT22;395;48.132;11.608;2023-04-12T04:34:01;9.10;3.20
827;DHT22;395;48.132;11.608;2023-04-12T04:36:28;9.30;3.40
827;DHT22;395;48.132;11.608;2023-04-12T04:38:55;9.30;3.40
827;DHT22;395;48.132;11.608;2023-04-12T04:41:21;9.30;3.40
827;DHT22;395;48.132;11.608;2023-04-12T04:43:49;9.30;3.60
827;DHT22;395;48.132;11.608;2023-04-12T04:46:15;9.30;3.80
827;DHT22;395;48.132;11.608;2023-04-12T04:48:41;9.30;3.80
827;DHT22;395;48.132;11.608;2023-04-12T04:51:07;9.20;3.70
827;DHT22;395;48.132;11.608;2023-04-12T04:53:33;9.30;3.80
827;DHT22;395;48.132;11.608;2023-04-12T04:55:59;9.30;3.80
827;DHT22;395;48.132;11.608;2023-04-12T04:58:26;9.20;3.70
827;DHT22;395;48.132;11.608;2023-04-12T05:00:55;9.20;3.70
827;DHT22;395;48.132;11.608;2023-04-12T05:03:22;9.30;4.20
827;DHT22;395;48.132;11.608;2023-04-12T05:05:48;9.30;3.80
827;DHT22;395;48.132;11.608;2023-04-12T05:08:14;9.30;3.80
827;DHT22;395;48.132;11.608;2023-04-12T05:10:42;9.30;3.80
827;DHT22;395;48.132;11.608;2023-04-12T05:13:08;9.30;3.80
827;DHT22;395;48.132;11.608;2023-04-12T05:15:34;9.20;3.70
827;DHT22;395;48.132;11.608;2023-04-12T05:18:00;9.20;3.70
827;DHT22;395;48.132;11.608;2023-04-12T05:20:26;9.20;4.30
827;DHT22;395;48.132;11.608;2023-04-12T05:22:51;9.20;4.60
827;DHT22;395;48.132;11.608;2023-04-12T05:25:17;9.20;4.70
827;DHT22;395;48.132;11.608;2023-04-12T05:27:45;9.20;4.70
827;DHT22;395;48.132;11.608;2023-04-12T05:30:11;9.20;4.80
827;DHT22;395;48.132;11.608;2023-04-12T05:32:37;9.30;4.90
827;DHT22;395;48.132;11.608;2023-04-12T05:35:03;9.30;5.00
827;DHT22;395;48.132;11.608;2023-04-12T05:37:28;9.30;5.00
827;DHT22;395;48.132;11.608;2023-04-12T05:39:54;9.30;5.10
827;DHT22;395;48.132;11.608;2023-04-12T05:42:20;9.30;5.00
827;DHT22;395;48.132;11.608;2023-04-12T05:44:45;9.30;4.90
827;DHT22;395;48.132;11.608;2023-04-12T05:47:13;9.30;4.70
827;DHT22;395;48.132;11.608;2023-04-12T05:49:38;9.30;5.30
827;DHT22;395;48.132;11.608;2023-04-12T05:52:04;9.30;4.80
827;DHT22;395;48.132;11.608;2023-04-12T05:54:30;9.30;4.90
827;DHT22;395;48.132;11.608;2023-04-12T05:56:56;9.30;5.00
827;DHT22;395;48.132;11.608;2023-04-12T05:59:22;9.30;5.10
827;DHT22;395;48.132;11.608;2023-04-12T06:01:47;9.30;5.10
827;DHT22;395;48.132;11.608;2023-04-12T06:04:14;9.30;5.00
827;DHT22;395;48.132;11.608;2023-04-12T06:06:39;9.30;4.90
827;DHT22;395;48.132;11.608;2023-04-12T06:09:05;9.30;4.80
827;DHT22;395;48.132;11.608;2023-04-12T06:11:31;9.40;5.10
827;DHT22;395;48.132;11.608;2023-04-12T06:13:59;9.50;4.90
827;DHT22;395;48.132;11.608;2023-04-12T06:16:25;9.40;4.50
827;DHT22;395;48.132;11.608;2023-04-12T06:18:51;9.40;4.20
827;DHT22;395;48.132;11.608;2023-04-12T06:21:17;9.40;4.00
827;DHT22;395;48.132;11.608;2023-04-12T06:23:43;9.40;4.20
827;DHT22;395;48.132;11.608;2023-04-12T06:26:09;9.50;4.30
827;DHT22;395;48.132;11.608;2023-04-12T06:28:34;9.50;4.60
827;DHT22;395;48.132;11.608;2023-04-12T06:31:00;9.50;4.70
827;DHT22;395;48.132;11.608;2023-04-12T06:33:26;9.50;4.90
827;DHT22;395;48.132;11.608;2023-04-12T06:35:51;9.50;5.20
827;DHT22;395;48.132;11.608;2023-04-12T06:38:17;9.50;4.80
827;DHT22;395;48.132;11.608;2023-04-12T06:40:43;9.60;4.90
827;DHT22;395;48.132;11.608;2023-04-12T06:43:09;9.60;4.90
827;DHT22;395;48.132;11.608;2023-04-12T06:45:34;9.60;4.80
827;DHT22;395;48.132;11.608;2023-04-12T06:48:00;9.70;5.00
827;DHT22;395;48.132;11.608;2023-04-12T06:50:26;9.70;5.60
827;DHT22;395;48.132;11.608;2023-04-12T06:52:51;9.80;5.60
827;DHT22;395;48.132;11.608;2023-04-12T06:55:17;9.80;5.40
827;DHT22;395;48.132;11.608;2023-04-12T06:57:43;9.90;4.90
827;DHT22;395;48.132;11.608;2023-04-12T07:00:11;9.90;4.20
827;DHT22;395;48.132;11.608;2023-04-12T07:02:36;9.90;4.20
827;DHT22;395;48.132;11.608;2023-04-12T07:05:06;9.90;4.60
827;DHT22;395;48.132;11.608;2023-04-12T07:07:32;10.00;4.40
827;DHT22;395;48.132;11.608;2023-04-12T07:09:57;10.00;5.10
827;DHT22;395;48.132;11.608;2023-04-12T07:12:24;10.00;5.20
827;DHT22;395;48.132;11.608;2023-04-12T07:14:50;10.00;5.20
827;DHT22;395;48.132;11.608;2023-04-12T07:17:16;10.10;4.90
827;DHT22;395;48.132;11.608;2023-04-12T07:19:41;10.10;5.20
827;DHT22;395;48.132;11.608;2023-04-12T07:22:08;10.10;5.00
827;DHT22;395;48.132;11.608;2023-04-12T07:24:33;10.20;5.20
827;DHT22;395;48.132;11.608;2023-04-12T07:26:59;10.20;4.90
827;DHT22;395;48.132;11.608;2023-04-12T07:29:25;10.20;4.80
827;DHT22;395;48.132;11.608;2023-04-12T07:31:51;10.20;4.90
827;DHT22;395;48.132;11.608;2023-04-12T07:34:16;10.30;5.00
827;DHT22;395;48.132;11.608;2023-04-12T07:36:42;10.20;4.70
827;DHT22;395;48.132;11.608;2023-04-12T07:39:11;10.30;4.80
827;DHT22;395;48.132;11.608;2023-04-12T07:41:37;10.30;4.90
827;DHT22;395;48.132;11.608;2023-04-12T07:44:03;10.40;5.10
827;DHT22;395;48.132;11.608;2023-04-12T07:46:29;10.40;4.80
827;DHT22;395;48.132;11.608;2023-04-12T07:48:55;10.40;4.90
827;DHT22;395;48.132;11.608;2023-04-12T07:51:21;10.40;4.80
827;DHT22;395;48.132;11.608;2023-04-12T07:53:46;10.40;5.20
827;DHT22;395;48.132;11.608;2023-04-12T07:56:16;10.50;5.10
827;DHT22;395;48.132;11.608;2023-04-12T07:58:41;10.50;4.90
827;DHT22;395;48.132;11.608;2023-04-12T08:01:07;10.50;4.90
827;DHT22;395;48.132;11.608;2023-04-12T08:03:33;10.60;5.40
827;DHT22;395;48.132;11.608;2023-04-12T08:05:58;10.60;5.40
827;DHT22;395;48.132;11.608;2023-04-12T08:08:24;10.60;5.50
827;DHT22;395;48.132;11.608;2023-04-12T08:10:51;10.60;5.60
827;DHT22;395;48.132;11.608;2023-04-12T08:13:17;10.60;5.80
827;DHT22;395;48.132;11.608;2023-04-12T08:15:43;10.70;5.90
827;DHT22;395;48.132;11.608;2023-04-12T08:18:09;10.70;5.50
827;DHT22;395;48.132;11.608;2023-04-12T08:20:35;10.80;5.70
827;DHT22;395;48.132;11.608;2023-04-12T08:23:06;10.80;5.50
827;DHT22;395;48.132;11.608;2023-04-12T08:25:32;10.90;5.50
827;DHT22;395;48.132;11.608;2023-04-12T08:27:58;10.90;5.60
827;DHT22;395;48.132;11.608;2023-04-12T08:30:24;10.90;5.70
827;DHT22;395;48.132;11.608;2023-04-12T08:32:52;10.90;6.00
827;DHT22;395;48.132;11.608;2023-04-12T08:35:18;11.00;6.10
827;DHT22;395;48.132;11.608;2023-04-12T08:37:44;11.00;6.30
827;DHT22;395;48.132;11.608;2023-04-12T08:40:10;11.00;6.70
827;DHT22;395;48.132;11.608;2023-04-12T08:42:36;11.00;6.60
827;DHT22;395;48.132;11.608;2023-04-12T08:45:06;11.00;6.70
827;DHT22;395;48.132;11.608;2023-04-12T08:47:43;11.00;6.70
827;DHT22;395;48.132;11.608;2023-04-12T08:50:10;11.10;6.70
827;DHT22;395;48.132;11.608;2023-04-12T08:52:39;11.10;7.00
827;DHT22;395;48.132;11.608;2023-04-12T08:55:06;11.10;7.40
827;DHT22;395;48.132;11.608;2023-04-12T08:57:32;11.20;7.70
827;DHT22;395;48.132;11.608;2023-04-12T09:00:00;11.30;7.80
827;DHT22;395;48.132;11.608;2023-04-12T09:02:26;11.20;7.60
827;DHT22;395;48.132;11.608;2023-04-12T09:04:52;11.30;7.80
827;DHT22;395;48.132;11.608;2023-04-12T09:07:22;11.30;8.60
827;DHT22;395;48.132;11.608;2023-04-12T09:09:48;11.40;8.20
827;DHT22;395;48.132;11.608;2023-04-12T09:12:15;11.40;8.20
827;DHT22;395;48.132;11.608;2023-04-12T09:14:41;11.50;8.40
827;DHT22;395;48.132;11.608;2023-04-12T09:17:21;11.50;8.50
827;DHT22;395;48.132;11.608;2023-04-12T09:19:47;11.50;8.70
827;DHT22;395;48.132;11.608;2023-04-12T09:22:12;11.60;9.10
827;DHT22;395;48.132;11.608;2023-04-12T09:24:49;11.60;9.30
827;DHT22;395;48.132;11.608;2023-04-12T09:27:18;11.70;9.40
827;DHT22;395;48.132;11.608;2023-04-12T09:29:47;11.70;9.70
827;DHT22;395;48.132;11.608;2023-04-12T09:32:25;11.80;9.70
827;DHT22;395;48.132;11.608;2023-04-12T09:34:56;11.80;9.40
827;DHT22;395;48.132;11.608;2023-04-12T09:37:22;11.90;9.20
827;DHT22;395;48.132;11.608;2023-04-12T09:40:01;11.80;8.80
827;DHT22;395;48.132;11.608;2023-04-12T09:42:27;12.00;8.80
827;DHT22;395;48.132;11.608;2023-04-12T09:44:53;12.00;8.50
827;DHT22;395;48.132;11.608;2023-04-12T09:47:19;12.00;8.40
827;DHT22;395;48.132;11.608;2023-04-12T09:49:45;12.10;8.30
827;DHT22;395;48.132;11.608;2023-04-12T09:52:12;12.10;8.30
827;DHT22;395;48.132;11.608;2023-04-12T09:54:43;12.10;7.70
827;DHT22;395;48.132;11.608;2023-04-12T09:57:10;12.10;7.40
827;DHT22;395;48.132;11.608;2023-04-12T09:59:39;12.20;7.20
827;DHT22;395;48.132;11.608;2023-04-12T10:02:15;12.20;7.30
827;DHT22;395;48.132;11.608;2023-04-12T10:04:42;12.20;7.00
827;DHT22;395;48.132;11.608;2023-04-12T10:07:07;12.20;6.70
827;DHT22;395;48.132;11.608;2023-04-12T10:09:34;12.30;6.50
827;DHT22;395;48.132;11.608;2023-04-12T10:12:02;12.30;6.30
827;DHT22;395;48.132;11.608;2023-04-12T10:14:28;12.30;6.00
827;DHT22;395;48.132;11.608;2023-04-12T10:16:59;12.30;6.40
827;DHT22;395;48.132;11.608;2023-04-12T10:19:26;12.40;6.20
827;DHT22;395;48.132;11.608;2023-04-12T10:21:54;12.40;6.10
827;DHT22;395;48.132;11.608;2023-04-12T10:24:21;12.40;6.30
827;DHT22;395;48.132;11.608;2023-04-12T10:26:47;12.40;6.00
827;DHT22;395;48.132;11.608;2023-04-12T10:29:33;12.40;5.40
827;DHT22;395;48.132;11.608;2023-04-12T10:32:20;12.40;5.20
827;DHT22;395;48.132;11.608;2023-04-12T10:34:54;12.40;5.20
827;DHT22;395;48.132;11.608;2023-04-12T10:37:21;12.50;5.10
827;DHT22;395;48.132;11.608;2023-04-12T10:39:53;12.50;5.00
827;DHT22;395;48.132;11.608;2023-04-12T10:50:25;12.70;4.50
827;DHT22;395;48.132;11.608;2023-04-12T10:55:41;12.70;3.50
827;DHT22;395;48.132;11.608;2023-04-12T10:58:08;12.50;2.60
827;DHT22;395;48.132;11.608;2023-04-12T11:03:26;12.70;2.00
827;DHT22;395;48.132;11.608;2023-04-12T11:06:04;12.70;2.50
827;DHT22;395;48.132;11.608;2023-04-12T11:08:31;12.80;2.20
827;DHT22;395;48.132;11.608;2023-04-12T11:11:04;12.90;1.60
827;DHT22;395;48.132;11.608;2023-04-12T11:13:39;13.00;1.00
827;DHT22;395;48.132;11.608;2023-04-12T11:16:05;13.10;1.00
827;DHT22;395;48.132;11.608;2023-04-12T11:18:32;13.00;1.70
827;DHT22;395;48.132;11.608;2023-04-12T11:20:59;12.90;2.30
827;DHT22;395;48.132;11.608;2023-04-12T11:23:27;12.90;2.50
827;DHT22;395;48.132;11.608;2023-04-12T11:25:53;13.00;1.90
827;DHT22;395;48.132;11.608;2023-04-12T11:28:19;13.10;1.90
827;DHT22;395;48.132;11.608;2023-04-12T11:30:52;13.20;2.00
827;DHT22;395;48.132;11.608;2023-04-12T11:33:37;13.20;2.50
827;DHT22;395;48.132;11.608;2023-04-12T11:36:08;13.20;2.50
827;DHT22;395;48.132;11.608;2023-04-12T11:38:36;13.20;2.70
827;DHT22;395;48.132;11.608;2023-04-12T11:41:03;13.20;2.40
827;DHT22;395;48.132;11.608;2023-04-12T11:43:32;13.30;1.90
827;DHT22;395;48.132;11.608;2023-04-12T11:45:59;13.40;1.80
827;DHT22;395;48.132;11.608;2023-04-12T11:48:25;13.40;1.60
827;DHT22;395;48.132;11.608;2023-04-12T11:50:52;13.40;1.30
827;DHT22;395;48.132;11.608;2023-04-12T11:53:18;13.50;1.00
827;DHT22;395;48.132;11.608;2023-04-12T11:55:50;13.40;1.00
827;DHT22;395;48.132;11.608;2023-04-12T11:58:22;13.50;1.00
827;DHT22;395;48.132;11.608;2023-04-12T12:00:48;13.40;1.00
827;DHT22;395;48.132;11.608;2023-04-12T12:03:15;13.50;1.00
827;DHT22;395;48.132;11.608;2023-04-12T12:05:41;13.50;1.00
827;DHT22;395;48.132;11.608;2023-04-12T12:08:07;13.50;1.00
827;DHT22;395;48.132;11.608;2023-04-12T12:10:37;13.50;1.00
827;DHT22;395;48.132;11.608;2023-04-12T12:13:13;13.50;1.00
827;DHT22;395;48.132;11.608;2023-04-12T12:15:42;13.50;1.00
827;DHT22;395;48.132;11.608;2023-04-12T12:18:09;13.50;1.00
827;DHT22;395;48.132;11.608;2023-04-12T12:20:46;13.50;1.00
827;DHT22;395;48.132;11.608;2023-04-12T12:23:25;13.60;1.00
827;DHT22;395;48.132;11.608;2023-04-12T12:25:51;13.60;1.00
827;DHT22;395;48.132;11.608;2023-04-12T12:28:17;13.60;1.00
827;DHT22;395;48.132;11.608;2023-04-12T12:30:43;13.60;1.00
827;DHT22;395;48.132;11.608;2023-04-12T12:33:08;13.60;1.00
827;DHT22;395;48.132;11.608;2023-04-12T12:35:35;13.60;1.00
827;DHT22;395;48.132;11.608;2023-04-12T12:38:05;13.60;1.00
827;DHT22;395;48.132;11.608;2023-04-12T12:40:31;13.70;1.00
827;DHT22;395;48.132;11.608;2023-04-12T12:42:57;13.70;1.00
827;DHT22;395;48.132;11.608;2023-04-12T12:45:25;13.70;1.00
827;DHT22;395;48.132;11.608;2023-04-12T12:47:54;13.70;1.00
827;DHT22;395;48.132;11.608;2023-04-12T12:50:27;13.80;1.00
827;DHT22;395;48.132;11.608;2023-04-12T12:52:54;13.80;1.00
827;DHT22;395;48.132;11.608;2023-04-12T12:55:21;13.80;1.00
827;DHT22;395;48.132;11.608;2023-04-12T12:57:50;13.90;1.00
827;DHT22;395;48.132;11.608;2023-04-12T13:00:16;13.90;1.00
827;DHT22;395;48.132;11.608;2023-04-12T13:02:42;13.90;1.00
827;DHT22;395;48.132;11.608;2023-04-12T13:05:09;14.00;1.00
827;DHT22;395;48.132;11.608;2023-04-12T13:07:35;14.10;1.00
827;DHT22;395;48.132;11.608;2023-04-12T13:10:01;14.10;1.00
827;DHT22;395;48.132;11.608;2023-04-12T13:12:27;14.10;1.00
827;DHT22;395;48.132;11.608;2023-04-12T13:14:52;14.20;1.00
827;DHT22;395;48.132;11.608;2023-04-12T13:17:18;14.20;1.00
827;DHT22;395;48.132;11.608;2023-04-12T13:19:45;14.10;1.00
827;DHT22;395;48.132;11.608;2023-04-12T13:22:15;14.10;1.00
827;DHT22;395;48.132;11.608;2023-04-12T13:24:43;14.10;1.00
827;DHT22;395;48.132;11.608;2023-04-12T13:27:09;13.90;1.00
827;DHT22;395;48.132;11.608;2023-04-12T13:29:35;14.10;1.00
827;DHT22;395;48.132;11.608;2023-04-12T13:32:02;14.10;1.00
827;DHT22;395;48.132;11.608;2023-04-12T13:34:27;14.20;1.00
827;DHT22;395;48.132;11.608;2023-04-12T13:36:53;14.00;1.00
827;DHT22;395;48.132;11.608;2023-04-12T13:39:19;13.90;1.00
827;DHT22;395;48.132;11.608;2023-04-12T13:41:45;14.00;1.00
827;DHT22;395;48.132;11.608;2023-04-12T13:44:11;14.10;1.00
827;DHT22;395;48.132;11.608;2023-04-12T13:46:36;14.10;1.00
827;DHT22;395;48.132;11.608;2023-04-12T13:49:02;13.90;1.00
827;DHT22;395;48.132;11.608;2023-04-12T13:51:28;13.80;1.00
827;DHT22;395;48.132;11.608;2023-04-12T13:53:54;13.70;1.00
827;DHT22;395;48.132;11.608;2023-04-12T13:56:20;13.80;1.00
827;DHT22;395;48.132;11.608;2023-04-12T13:58:46;13.90;1.00
827;DHT22;395;48.132;11.608;2023-04-12T14:01:12;14.00;1.00
827;DHT22;395;48.132;11.608;2023-04-12T14:03:38;14.00;1.00
827;DHT22;395;48.132;11.608;2023-04-12T14:06:04;13.80;1.00
827;DHT22;395;48.132;11.608;2023-04-12T14:08:30;13.80;1.00
827;DHT22;395;48.132;11.608;2023-04-12T14:10:56;13.90;1.00
827;DHT22;395;48.132;11.608;2023-04-12T14:13:22;14.00;1.00
827;DHT22;395;48.132;11.608;2023-04-12T14:15:49;13.90;1.00
827;DHT22;395;48.132;11.608;2023-04-12T14:18:15;14.00;1.00
827;DHT22;395;48.132;11.608;2023-04-12T14:20:41;14.10;1.00
827;DHT22;395;48.132;11.608;2023-04-12T14:23:08;14.10;1.00
827;DHT22;395;48.132;11.608;2023-04-12T14:25:36;14.00;1.00
827;DHT22;395;48.132;11.608;2023-04-12T14:28:01;14.10;1.00
827;DHT22;395;48.132;11.608;2023-04-12T14:30:27;14.10;1.00
827;DHT22;395;48.132;11.608;2023-04-12T14:32:53;14.10;1.00
827;DHT22;395;48.132;11.608;2023-04-12T14:35:18;14.10;1.00
827;DHT22;395;48.132;11.608;2023-04-12T14:37:44;14.10;1.00
827;DHT22;395;48.132;11.608;2023-04-12T14:40:10;14.10;1.00
827;DHT22;395;48.132;11.608;2023-04-12T14:42:35;14.20;1.00
827;DHT22;395;48.132;11.608;2023-04-12T14:45:02;14.00;1.00
827;DHT22;395;48.132;11.608;2023-04-12T14:47:29;14.00;1.00
827;DHT22;395;48.132;11.608;2023-04-12T14:49:55;14.10;1.00
827;DHT22;395;48.132;11.608;2023-04-12T14:52:21;14.20;1.00
827;DHT22;395;48.132;11.608;2023-04-12T14:54:46;14.20;1.00
827;DHT22;395;48.132;11.608;2023-04-12T14:57:12;14.30;1.00
827;DHT22;395;48.132;11.608;2023-04-12T14:59:38;14.10;1.00
827;DHT22;395;48.132;11.608;2023-04-12T15:02:03;14.20;1.00
827;DHT22;395;48.132;11.608;2023-04-12T15:04:29;14.20;1.00
827;DHT22;395;48.132;11.608;2023-04-12T15:06:55;14.30;1.00
827;DHT22;395;48.132;11.608;2023-04-12T15:09:20;14.30;1.00
827;DHT22;395;48.132;11.608;2023-04-12T15:11:49;14.20;1.00
827;DHT22;395;48.132;11.608;2023-04-12T15:14:19;14.30;1.00
827;DHT22;395;48.132;11.608;2023-04-12T15:16:45;14.00;1.00
827;DHT22;395;48.132;11.608;2023-04-12T15:19:13;14.10;1.00
827;DHT22;395;48.132;11.608;2023-04-12T15:21:39;14.30;1.00
827;DHT22;395;48.132;11.608;2023-04-12T15:24:05;14.30;1.00
827;DHT22;395;48.132;11.608;2023-04-12T15:26:30;14.30;1.00
827;DHT22;395;48.132;11.608;2023-04-12T15:28:58;14.30;1.00
827;DHT22;395;48.132;11.608;2023-04-12T15:31:23;14.20;1.00
827;DHT22;395;48.132;11.608;2023-04-12T15:33:50;14.20;1.00
827;DHT22;395;48.132;11.608;2023-04-12T15:36:15;14.20;1.00
827;DHT22;395;48.132;11.608;2023-04-12T15:38:44;14.20;1.00
827;DHT22;395;48.132;11.608;2023-04-12T15:41:10;14.20;1.00
827;DHT22;395;48.132;11.608;2023-04-12T15:43:36;14.20;1.00
827;DHT22;395;48.132;11.608;2023-04-12T15:46:01;14.00;1.00
827;DHT22;395;48.132;11.608;2023-04-12T15:48:27;14.00;1.00
827;DHT22;395;48.132;11.608;2023-04-12T15:50:54;14.10;1.00
827;DHT22;395;48.132;11.608;2023-04-12T15:53:22;14.00;1.00
827;DHT22;395;48.132;11.608;2023-04-12T15:55:48;14.10;1.00
827;DHT22;395;48.132;11.608;2023-04-12T15:58:19;14.20;1.00
827;DHT22;395;48.132;11.608;2023-04-12T16:00:45;14.20;1.00
827;DHT22;395;48.132;11.608;2023-04-12T16:03:12;14.20;1.00
827;DHT22;395;48.132;11.608;2023-04-12T16:05:41;14.20;1.00
827;DHT22;395;48.132;11.608;2023-04-12T16:08:07;14.20;1.00
827;DHT22;395;48.132;11.608;2023-04-12T16:10:34;14.10;1.00
827;DHT22;395;48.132;11.608;2023-04-12T16:12:59;14.10;1.00
827;DHT22;395;48.132;11.608;2023-04-12T16:15:25;14.00;1.00
827;DHT22;395;48.132;11.608;2023-04-12T16:17:51;14.00;1.00
827;DHT22;395;48.132;11.608;2023-04-12T16:20:21;14.00;1.00
827;DHT22;395;48.132;11.608;2023-04-12T16:22:47;14.00;1.00
827;DHT22;395;48.132;11.608;2023-04-12T16:25:14;14.10;1.00
827;DHT22;395;48.132;11.608;2023-04-12T16:27:41;14.10;1.00
827;DHT22;395;48.132;11.608;2023-04-12T16:30:07;14.10;1.00
827;DHT22;395;48.132;11.608;2023-04-12T16:32:35;14.10;1.00
827;DHT22;395;48.132;11.608;2023-04-12T16:35:01;14.00;1.00
827;DHT22;395;48.132;11.608;2023-04-12T16:37:27;14.10;1.00
827;DHT22;395;48.132;11.608;2023-04-12T16:39:54;14.20;1.00
827;DHT22;395;48.132;11.608;2023-04-12T16:42:20;14.10;1.00
827;DHT22;395;48.132;11.608;2023-04-12T16:44:46;14.20;1.00
827;DHT22;395;48.132;11.608;2023-04-12T16:47:12;14.10;1.00
827;DHT22;395;48.132;11.608;2023-04-12T16:49:38;14.10;1.00
827;DHT22;395;48.132;11.608;2023-04-12T16:52:03;14.10;1.00
827;DHT22;395;48.132;11.608;2023-04-12T16:54:29;14.00;1.00
827;DHT22;395;48.132;11.608;2023-04-12T16:56:55;14.00;1.00
827;DHT22;395;48.132;11.608;2023-04-12T16:59:22;14.10;1.00
827;DHT22;395;48.132;11.608;2023-04-12T17:01:48;14.00;1.00
827;DHT22;395;48.132;11.608;2023-04-12T17:04:14;14.00;1.00
827;DHT22;395;48.132;11.608;2023-04-12T17:06:40;14.00;1.00
827;DHT22;395;48.132;11.608;2023-04-12T17:09:07;14.00;1.00